首页
METAR-TAF:

METAR-TAF

机场 :

里昂, 法国

纬度: 45-43N, 经度: 004-57E, 海拔: 200米

当前天气观测

该预报发布于27分钟前的01:30 UTC
静风
温度 0°C
湿度 100%
气压 1008 hPa
能見度: 0250

METAR: LFLY 170130Z AUTO 00000KT 0300 0250 R34/0275N FG VV/// 00/00 Q1008 BECMG 0400 FG

时间: 02:57 (01:57 UTC)

预报

该预报发布于1小时和20分钟前的00:37 UTC
预报有效从17日的 00点(UTC)到 17日的 24点(UTC)
风速2节,风向多变
能見度: 2000
轻雾
成为
从 17日的 00点(UTC)到 17日的 02点(UTC)
能見度: 0400
短暂存在
从 17日的 04点(UTC)到 17日的 05点(UTC)
冻雾
几率 30% :
短暂存在
从 17日的 05点(UTC)到 17日的 09点(UTC)
冻雾
成为
从 17日的 10点(UTC)到 17日的 12点(UTC)
能見度: 3000
阴天层高于500英尺
轻雾
成为
从 17日的 12点(UTC)到 17日的 14点(UTC)
能見度: 6000
多云层高于1000英尺
多云层高于3000英尺
阴天层高于6000英尺
小雨

TAF: LFLY 170037Z 1700/1724 VRB02KT 2000 BR NSC BECMG 1700/1702 0400 FG VV/// TEMPO 1704/1705 FZFG PROB30 TEMPO 1705/1709 FZFG BECMG 1710/1712 3000 BR OVC005 BECMG 1712/1714 6000 -RA BKN010 BKN030 OVC060

超过4000个机场的气象观测和天气预报(METAR&TAF报告)。

可查询的气象台以黄色和红色小点在地图上表示。

将鼠标移到小点上方,可查看气象台名称。

然后点击查看天气观测和预报。

如需切换地图:点击带黑十字的绿色按钮放大地图;点击带横线的绿色按钮缩小地图;或者点击绿色箭头查看邻近地区的地图。


METAR-TAF: